sensor_id;sensor_type;location;lat;lon;timestamp;temperature;humidity
5027;DHT22;2532;52.480;13.354;2023-04-01T04:05:51;12.00;99.90
5027;DHT22;2532;52.480;13.354;2023-04-01T04:08:39;12.00;99.90
5027;DHT22;2532;52.480;13.354;2023-04-01T04:11:22;12.00;99.90
5027;DHT22;2532;52.480;13.354;2023-04-01T04:14:06;12.00;99.90
5027;DHT22;2532;52.480;13.354;2023-04-01T04:16:37;12.00;99.90
5027;DHT22;2532;52.480;13.354;2023-04-01T04:19:04;12.00;99.90
5027;DHT22;2532;52.480;13.354;2023-04-01T04:21:33;12.00;99.90
5027;DHT22;2532;52.480;13.354;2023-04-01T04:24:00;12.00;99.90
5027;DHT22;2532;52.480;13.354;2023-04-01T04:26:27;12.00;99.90
5027;DHT22;2532;52.480;13.354;2023-04-01T04:28:55;12.00;99.90
5027;DHT22;2532;52.480;13.354;2023-04-01T04:31:23;12.00;99.90
5027;DHT22;2532;52.480;13.354;2023-04-01T04:33:51;12.00;99.90
5027;DHT22;2532;52.480;13.354;2023-04-01T04:36:19;12.10;99.90
5027;DHT22;2532;52.480;13.354;2023-04-01T04:38:48;12.00;99.90
5027;DHT22;2532;52.480;13.354;2023-04-01T04:41:16;12.00;99.90
5027;DHT22;2532;52.480;13.354;2023-04-01T04:43:49;12.00;99.90
5027;DHT22;2532;52.480;13.354;2023-04-01T04:46:17;12.00;99.90
5027;DHT22;2532;52.480;13.354;2023-04-01T04:48:44;12.00;99.90
5027;DHT22;2532;52.480;13.354;2023-04-01T04:51:13;12.00;99.90
5027;DHT22;2532;52.480;13.354;2023-04-01T04:53:41;12.00;99.90
5027;DHT22;2532;52.480;13.354;2023-04-01T04:56:09;12.00;99.90
5027;DHT22;2532;52.480;13.354;2023-04-01T04:58:37;12.00;99.90
5027;DHT22;2532;52.480;13.354;2023-04-01T05:01:08;12.00;99.90
5027;DHT22;2532;52.480;13.354;2023-04-01T05:03:36;12.00;99.90
5027;DHT22;2532;52.480;13.354;2023-04-01T05:06:04;12.00;99.90
5027;DHT22;2532;52.480;13.354;2023-04-01T05:08:31;12.00;99.90
5027;DHT22;2532;52.480;13.354;2023-04-01T05:10:59;12.00;99.90
5027;DHT22;2532;52.480;13.354;2023-04-01T05:13:28;12.00;99.90
5027;DHT22;2532;52.480;13.354;2023-04-01T05:15:55;12.00;99.90
5027;DHT22;2532;52.480;13.354;2023-04-01T05:18:23;12.00;99.90
5027;DHT22;2532;52.480;13.354;2023-04-01T05:20:51;11.90;99.90
5027;DHT22;2532;52.480;13.354;2023-04-01T05:23:18;12.00;99.90
5027;DHT22;2532;52.480;13.354;2023-04-01T05:25:47;12.00;99.90
5027;DHT22;2532;52.480;13.354;2023-04-01T05:28:14;12.00;99.90
5027;DHT22;2532;52.480;13.354;2023-04-01T05:30:44;12.00;99.90
5027;DHT22;2532;52.480;13.354;2023-04-01T05:33:12;12.10;99.90
5027;DHT22;2532;52.480;13.354;2023-04-01T05:35:39;12.00;99.90
5027;DHT22;2532;52.480;13.354;2023-04-01T05:38:06;12.10;99.90
5027;DHT22;2532;52.480;13.354;2023-04-01T05:40:34;12.10;99.90
5027;DHT22;2532;52.480;13.354;2023-04-01T05:43:01;12.20;99.90
5027;DHT22;2532;52.480;13.354;2023-04-01T05:45:28;12.20;99.90
5027;DHT22;2532;52.480;13.354;2023-04-01T05:47:57;12.20;99.90
5027;DHT22;2532;52.480;13.354;2023-04-01T05:50:24;12.20;99.90
5027;DHT22;2532;52.480;13.354;2023-04-01T05:52:51;12.30;99.90
5027;DHT22;2532;52.480;13.354;2023-04-01T05:55:18;12.30;99.90
5027;DHT22;2532;52.480;13.354;2023-04-01T05:57:45;12.30;99.90
5027;DHT22;2532;52.480;13.354;2023-04-01T06:00:14;12.40;99.90
5027;DHT22;2532;52.480;13.354;2023-04-01T06:02:42;12.40;99.90
5027;DHT22;2532;52.480;13.354;2023-04-01T06:05:16;12.40;99.90
5027;DHT22;2532;52.480;13.354;2023-04-01T06:07:44;12.50;99.90
5027;DHT22;2532;52.480;13.354;2023-04-01T06:10:16;12.50;99.90
5027;DHT22;2532;52.480;13.354;2023-04-01T06:12:52;12.50;99.90
5027;DHT22;2532;52.480;13.354;2023-04-01T06:15:25;12.50;99.90
5027;DHT22;2532;52.480;13.354;2023-04-01T06:21:11;12.40;99.90
5027;DHT22;2532;52.480;13.354;2023-04-01T06:23:50;12.40;99.90
5027;DHT22;2532;52.480;13.354;2023-04-01T06:26:27;12.40;99.90
5027;DHT22;2532;52.480;13.354;2023-04-01T06:29:07;12.40;99.90
5027;DHT22;2532;52.480;13.354;2023-04-01T06:34:59;12.40;99.90
5027;DHT22;2532;52.480;13.354;2023-04-01T06:40:37;12.40;99.90
5027;DHT22;2532;52.480;13.354;2023-04-01T06:43:14;12.40;99.90
5027;DHT22;2532;52.480;13.354;2023-04-01T06:45:49;12.40;99.90
5027;DHT22;2532;52.480;13.354;2023-04-01T06:51:18;12.30;99.90
5027;DHT22;2532;52.480;13.354;2023-04-01T06:53:54;12.40;99.90
5027;DHT22;2532;52.480;13.354;2023-04-01T06:56:24;12.40;99.90
5027;DHT22;2532;52.480;13.354;2023-04-01T06:58:55;12.40;99.90
5027;DHT22;2532;52.480;13.354;2023-04-01T07:01:27;12.50;99.90
5027;DHT22;2532;52.480;13.354;2023-04-01T07:03:58;12.50;99.90
5027;DHT22;2532;52.480;13.354;2023-04-01T07:06:30;12.50;99.90
5027;DHT22;2532;52.480;13.354;2023-04-01T07:09:02;12.60;99.90
5027;DHT22;2532;52.480;13.354;2023-04-01T07:11:34;12.60;99.90
5027;DHT22;2532;52.480;13.354;2023-04-01T07:14:03;12.70;99.90
5027;DHT22;2532;52.480;13.354;2023-04-01T07:16:34;12.70;99.90
5027;DHT22;2532;52.480;13.354;2023-04-01T07:19:08;12.80;99.90
5027;DHT22;2532;52.480;13.354;2023-04-01T07:21:40;12.80;99.90
5027;DHT22;2532;52.480;13.354;2023-04-01T07:24:15;12.80;99.80
5027;DHT22;2532;52.480;13.354;2023-04-01T07:26:44;12.90;99.80
5027;DHT22;2532;52.480;13.354;2023-04-01T07:29:13;13.00;99.60
5027;DHT22;2532;52.480;13.354;2023-04-01T07:31:52;13.00;99.50
5027;DHT22;2532;52.480;13.354;2023-04-01T07:34:26;13.10;99.40
5027;DHT22;2532;52.480;13.354;2023-04-01T07:36:58;13.10;99.30
5027;DHT22;2532;52.480;13.354;2023-04-01T07:39:36;13.10;99.20
5027;DHT22;2532;52.480;13.354;2023-04-01T07:42:15;13.10;99.10
5027;DHT22;2532;52.480;13.354;2023-04-01T07:44:51;13.20;99.10
5027;DHT22;2532;52.480;13.354;2023-04-01T07:47:31;13.30;99.00
5027;DHT22;2532;52.480;13.354;2023-04-01T07:50:08;13.30;98.90
5027;DHT22;2532;52.480;13.354;2023-04-01T07:52:44;13.40;98.90
5027;DHT22;2532;52.480;13.354;2023-04-01T07:55:18;13.40;98.80
5027;DHT22;2532;52.480;13.354;2023-04-01T07:57:55;13.50;98.80
5027;DHT22;2532;52.480;13.354;2023-04-01T08:00:33;13.50;98.50
5027;DHT22;2532;52.480;13.354;2023-04-01T08:03:18;13.60;98.30
5027;DHT22;2532;52.480;13.354;2023-04-01T08:05:53;13.70;98.30
5027;DHT22;2532;52.480;13.354;2023-04-01T08:08:29;13.70;98.10
5027;DHT22;2532;52.480;13.354;2023-04-01T08:11:06;13.80;98.00
5027;DHT22;2532;52.480;13.354;2023-04-01T08:13:39;13.90;98.00
5027;DHT22;2532;52.480;13.354;2023-04-01T08:16:13;14.00;97.70
5027;DHT22;2532;52.480;13.354;2023-04-01T08:18:51;13.90;97.40
5027;DHT22;2532;52.480;13.354;2023-04-01T08:21:22;14.00;97.20
5027;DHT22;2532;52.480;13.354;2023-04-01T08:23:52;14.00;97.30
5027;DHT22;2532;52.480;13.354;2023-04-01T08:26:32;14.10;97.30
5027;DHT22;2532;52.480;13.354;2023-04-01T08:29:05;14.10;97.50
5027;DHT22;2532;52.480;13.354;2023-04-01T08:31:38;14.10;97.70
5027;DHT22;2532;52.480;13.354;2023-04-01T08:34:14;14.00;97.80
5027;DHT22;2532;52.480;13.354;2023-04-01T08:36:45;14.00;97.80
5027;DHT22;2532;52.480;13.354;2023-04-01T08:39:17;13.80;97.90
5027;DHT22;2532;52.480;13.354;2023-04-01T08:42:18;13.60;97.90
5027;DHT22;2532;52.480;13.354;2023-04-01T08:47:55;13.10;98.40
5027;DHT22;2532;52.480;13.354;2023-04-01T08:53:34;12.80;99.20
5027;DHT22;2532;52.480;13.354;2023-04-01T08:56:12;12.60;99.50
5027;DHT22;2532;52.480;13.354;2023-04-01T08:58:54;12.50;99.50
5027;DHT22;2532;52.480;13.354;2023-04-01T09:01:35;12.30;99.50
5027;DHT22;2532;52.480;13.354;2023-04-01T09:04:18;12.00;99.60
5027;DHT22;2532;52.480;13.354;2023-04-01T09:07:04;11.80;99.90
5027;DHT22;2532;52.480;13.354;2023-04-01T09:09:57;11.70;99.90
5027;DHT22;2532;52.480;13.354;2023-04-01T09:12:59;11.50;99.90
5027;DHT22;2532;52.480;13.354;2023-04-01T09:15:47;11.40;99.90
5027;DHT22;2532;52.480;13.354;2023-04-01T09:22:09;11.30;99.90
5027;DHT22;2532;52.480;13.354;2023-04-01T09:25:05;11.20;99.90
5027;DHT22;2532;52.480;13.354;2023-04-01T09:27:44;11.20;99.90
5027;DHT22;2532;52.480;13.354;2023-04-01T09:30:31;11.30;99.90
5027;DHT22;2532;52.480;13.354;2023-04-01T09:36:21;11.10;99.90
5027;DHT22;2532;52.480;13.354;2023-04-01T09:38:57;11.00;99.90
5027;DHT22;2532;52.480;13.354;2023-04-01T09:41:31;10.90;99.90
5027;DHT22;2532;52.480;13.354;2023-04-01T09:44:03;10.80;99.90
5027;DHT22;2532;52.480;13.354;2023-04-01T09:46:59;10.80;99.90
5027;DHT22;2532;52.480;13.354;2023-04-01T09:49:53;10.70;99.90
5027;DHT22;2532;52.480;13.354;2023-04-01T09:52:31;10.70;99.90
5027;DHT22;2532;52.480;13.354;2023-04-01T10:01:19;10.70;99.90
5027;DHT22;2532;52.480;13.354;2023-04-01T10:04:24;10.70;99.90
5027;DHT22;2532;52.480;13.354;2023-04-01T10:16:36;10.70;99.90
5027;DHT22;2532;52.480;13.354;2023-04-01T10:22:49;10.60;99.90
5027;DHT22;2532;52.480;13.354;2023-04-01T10:28:49;10.60;99.90
5027;DHT22;2532;52.480;13.354;2023-04-01T10:34:45;10.60;99.90
5027;DHT22;2532;52.480;13.354;2023-04-01T10:37:29;10.60;99.90
5027;DHT22;2532;52.480;13.354;2023-04-01T10:40:38;10.60;99.90
5027;DHT22;2532;52.480;13.354;2023-04-01T10:43:32;10.60;99.90
5027;DHT22;2532;52.480;13.354;2023-04-01T10:46:47;10.50;99.90
5027;DHT22;2532;52.480;13.354;2023-04-01T10:49:40;10.50;99.90
5027;DHT22;2532;52.480;13.354;2023-04-01T10:52:52;10.50;99.90
5027;DHT22;2532;52.480;13.354;2023-04-01T11:07:41;10.40;99.90
5027;DHT22;2532;52.480;13.354;2023-04-01T11:14:09;10.40;99.90
5027;DHT22;2532;52.480;13.354;2023-04-01T11:20:33;10.40;99.90
5027;DHT22;2532;52.480;13.354;2023-04-01T11:23:22;10.40;99.90
5027;DHT22;2532;52.480;13.354;2023-04-01T11:26:07;10.50;99.90
5027;DHT22;2532;52.480;13.354;2023-04-01T11:29:03;10.60;99.90
5027;DHT22;2532;52.480;13.354;2023-04-01T11:31:43;10.60;99.90
5027;DHT22;2532;52.480;13.354;2023-04-01T11:34:36;10.70;99.90
5027;DHT22;2532;52.480;13.354;2023-04-01T11:37:15;10.60;99.90
5027;DHT22;2532;52.480;13.354;2023-04-01T11:40:03;10.70;99.90
5027;DHT22;2532;52.480;13.354;2023-04-01T11:42:39;10.60;99.90
5027;DHT22;2532;52.480;13.354;2023-04-01T11:45:28;10.60;99.90
5027;DHT22;2532;52.480;13.354;2023-04-01T11:48:19;10.50;99.90
5027;DHT22;2532;52.480;13.354;2023-04-01T11:51:11;10.40;99.90
5027;DHT22;2532;52.480;13.354;2023-04-01T11:53:50;10.30;99.90
5027;DHT22;2532;52.480;13.354;2023-04-01T11:56:36;10.30;99.90
5027;DHT22;2532;52.480;13.354;2023-04-01T11:59:37;10.30;99.90
5027;DHT22;2532;52.480;13.354;2023-04-01T12:02:13;10.20;99.90
5027;DHT22;2532;52.480;13.354;2023-04-01T12:07:50;10.20;99.90
5027;DHT22;2532;52.480;13.354;2023-04-01T12:10:26;10.10;99.90
5027;DHT22;2532;52.480;13.354;2023-04-01T12:13:03;10.10;99.90
5027;DHT22;2532;52.480;13.354;2023-04-01T12:15:42;10.10;99.90
5027;DHT22;2532;52.480;13.354;2023-04-01T12:18:15;10.10;99.90
5027;DHT22;2532;52.480;13.354;2023-04-01T12:20:49;10.10;99.90
5027;DHT22;2532;52.480;13.354;2023-04-01T12:23:42;10.10;99.90
5027;DHT22;2532;52.480;13.354;2023-04-01T12:26:32;10.00;99.90
5027;DHT22;2532;52.480;13.354;2023-04-01T12:29:12;10.00;99.90
5027;DHT22;2532;52.480;13.354;2023-04-01T12:31:52;10.00;99.90
5027;DHT22;2532;52.480;13.354;2023-04-01T12:34:49;10.00;99.90
5027;DHT22;2532;52.480;13.354;2023-04-01T12:37:29;10.00;99.90
5027;DHT22;2532;52.480;13.354;2023-04-01T12:40:26;10.00;99.90
5027;DHT22;2532;52.480;13.354;2023-04-01T12:43:11;10.00;99.90
5027;DHT22;2532;52.480;13.354;2023-04-01T12:45:47;10.00;99.90
5027;DHT22;2532;52.480;13.354;2023-04-01T12:48:32;9.90;99.90
5027;DHT22;2532;52.480;13.354;2023-04-01T12:54:30;9.70;99.90
5027;DHT22;2532;52.480;13.354;2023-04-01T12:57:10;9.60;99.90
5027;DHT22;2532;52.480;13.354;2023-04-01T13:00:03;9.60;99.90
5027;DHT22;2532;52.480;13.354;2023-04-01T13:02:40;9.50;99.90
5027;DHT22;2532;52.480;13.354;2023-04-01T13:05:33;9.50;99.90
5027;DHT22;2532;52.480;13.354;2023-04-01T13:08:20;9.50;99.90
5027;DHT22;2532;52.480;13.354;2023-04-01T13:11:09;9.60;99.90
5027;DHT22;2532;52.480;13.354;2023-04-01T13:16:39;9.50;99.90
5027;DHT22;2532;52.480;13.354;2023-04-01T13:19:15;9.50;99.90
5027;DHT22;2532;52.480;13.354;2023-04-01T13:21:52;9.50;99.90
5027;DHT22;2532;52.480;13.354;2023-04-01T13:24:36;9.60;99.90
5027;DHT22;2532;52.480;13.354;2023-04-01T13:27:10;9.50;99.90
5027;DHT22;2532;52.480;13.354;2023-04-01T13:29:43;9.50;99.90
5027;DHT22;2532;52.480;13.354;2023-04-01T13:32:27;9.50;99.90
5027;DHT22;2532;52.480;13.354;2023-04-01T13:35:09;9.50;99.90
5027;DHT22;2532;52.480;13.354;2023-04-01T13:37:51;9.40;99.90
5027;DHT22;2532;52.480;13.354;2023-04-01T13:40:39;9.40;99.90
5027;DHT22;2532;52.480;13.354;2023-04-01T13:43:14;9.30;99.90
5027;DHT22;2532;52.480;13.354;2023-04-01T13:46:06;9.30;99.90
5027;DHT22;2532;52.480;13.354;2023-04-01T13:48:57;9.20;99.90
5027;DHT22;2532;52.480;13.354;2023-04-01T13:51:48;9.20;99.90
5027;DHT22;2532;52.480;13.354;2023-04-01T13:57:23;9.20;99.90
5027;DHT22;2532;52.480;13.354;2023-04-01T14:00:03;9.30;99.90
5027;DHT22;2532;52.480;13.354;2023-04-01T14:02:47;9.30;99.90
5027;DHT22;2532;52.480;13.354;2023-04-01T14:05:39;9.30;99.90
5027;DHT22;2532;52.480;13.354;2023-04-01T14:08:20;9.30;99.90
5027;DHT22;2532;52.480;13.354;2023-04-01T14:11:01;9.20;99.90
5027;DHT22;2532;52.480;13.354;2023-04-01T14:13:39;9.20;99.90
5027;DHT22;2532;52.480;13.354;2023-04-01T14:16:32;9.10;99.90
5027;DHT22;2532;52.480;13.354;2023-04-01T14:19:10;9.10;99.90
5027;DHT22;2532;52.480;13.354;2023-04-01T14:21:49;9.00;99.90
5027;DHT22;2532;52.480;13.354;2023-04-01T14:24:46;9.10;99.90
5027;DHT22;2532;52.480;13.354;2023-04-01T14:27:39;9.00;99.90
5027;DHT22;2532;52.480;13.354;2023-04-01T14:30:26;9.00;99.90
5027;DHT22;2532;52.480;13.354;2023-04-01T14:33:01;9.10;99.90
5027;DHT22;2532;52.480;13.354;2023-04-01T14:35:38;9.00;99.80
5027;DHT22;2532;52.480;13.354;2023-04-01T14:38:30;9.00;99.90
5027;DHT22;2532;52.480;13.354;2023-04-01T14:41:16;9.00;99.90
5027;DHT22;2532;52.480;13.354;2023-04-01T14:44:18;9.00;99.90
5027;DHT22;2532;52.480;13.354;2023-04-01T14:47:09;9.00;99.90
5027;DHT22;2532;52.480;13.354;2023-04-01T14:49:41;8.90;99.90
5027;DHT22;2532;52.480;13.354;2023-04-01T14:52:13;8.90;99.90
5027;DHT22;2532;52.480;13.354;2023-04-01T14:54:46;8.90;99.80
5027;DHT22;2532;52.480;13.354;2023-04-01T14:57:14;8.90;99.90
5027;DHT22;2532;52.480;13.354;2023-04-01T14:59:47;8.80;99.70
5027;DHT22;2532;52.480;13.354;2023-04-01T15:02:46;8.80;99.70
5027;DHT22;2532;52.480;13.354;2023-04-01T15:05:20;8.80;99.80
5027;DHT22;2532;52.480;13.354;2023-04-01T15:08:18;8.80;99.90
5027;DHT22;2532;52.480;13.354;2023-04-01T15:10:58;8.80;99.90
5027;DHT22;2532;52.480;13.354;2023-04-01T15:13:38;8.70;99.70
5027;DHT22;2532;52.480;13.354;2023-04-01T15:16:18;8.80;99.80
5027;DHT22;2532;52.480;13.354;2023-04-01T15:18:53;8.70;99.90
5027;DHT22;2532;52.480;13.354;2023-04-01T15:21:45;8.70;99.90
5027;DHT22;2532;52.480;13.354;2023-04-01T15:24:21;8.70;99.60
5027;DHT22;2532;52.480;13.354;2023-04-01T15:27:06;8.60;99.50
5027;DHT22;2532;52.480;13.354;2023-04-01T15:30:01;8.60;99.50
5027;DHT22;2532;52.480;13.354;2023-04-01T15:32:42;8.60;99.60
5027;DHT22;2532;52.480;13.354;2023-04-01T15:35:21;8.60;99.80
5027;DHT22;2532;52.480;13.354;2023-04-01T15:37:54;8.60;99.90
5027;DHT22;2532;52.480;13.354;2023-04-01T15:40:24;8.60;99.90
5027;DHT22;2532;52.480;13.354;2023-04-01T15:43:06;8.60;99.90
5027;DHT22;2532;52.480;13.354;2023-04-01T15:45:45;8.70;99.90
5027;DHT22;2532;52.480;13.354;2023-04-01T15:48:24;8.70;99.90
5027;DHT22;2532;52.480;13.354;2023-04-01T15:51:02;8.70;99.80
5027;DHT22;2532;52.480;13.354;2023-04-01T15:53:54;8.70;99.70
5027;DHT22;2532;52.480;13.354;2023-04-01T15:56:28;8.80;99.50
5027;DHT22;2532;52.480;13.354;2023-04-01T15:59:19;8.70;99.30
5027;DHT22;2532;52.480;13.354;2023-04-01T16:01:55;8.70;99.30
5027;DHT22;2532;52.480;13.354;2023-04-01T16:04:44;8.70;99.20
5027;DHT22;2532;52.480;13.354;2023-04-01T16:07:24;8.70;99.20
5027;DHT22;2532;52.480;13.354;2023-04-01T16:10:09;8.70;99.20
5027;DHT22;2532;52.480;13.354;2023-04-01T16:12:53;8.70;99.40
5027;DHT22;2532;52.480;13.354;2023-04-01T16:15:29;8.70;99.50
5027;DHT22;2532;52.480;13.354;2023-04-01T16:18:16;8.70;99.50
5027;DHT22;2532;52.480;13.354;2023-04-01T16:20:52;8.60;99.40
5027;DHT22;2532;52.480;13.354;2023-04-01T16:23:24;8.50;99.30
5027;DHT22;2532;52.480;13.354;2023-04-01T16:26:01;8.50;99.40
5027;DHT22;2532;52.480;13.354;2023-04-01T16:28:32;8.40;99.20
5027;DHT22;2532;52.480;13.354;2023-04-01T16:31:05;8.40;99.40
5027;DHT22;2532;52.480;13.354;2023-04-01T16:33:45;8.30;99.40
5027;DHT22;2532;52.480;13.354;2023-04-01T16:36:22;8.30;99.20
5027;DHT22;2532;52.480;13.354;2023-04-01T16:38:58;8.30;99.50
5027;DHT22;2532;52.480;13.354;2023-04-01T16:41:31;8.20;99.50
5027;DHT22;2532;52.480;13.354;2023-04-01T16:44:10;8.10;99.40
5027;DHT22;2532;52.480;13.354;2023-04-01T16:46:43;8.00;99.50
5027;DHT22;2532;52.480;13.354;2023-04-01T16:49:24;8.00;99.30
5027;DHT22;2532;52.480;13.354;2023-04-01T16:52:04;7.90;99.20
5027;DHT22;2532;52.480;13.354;2023-04-01T16:54:43;7.90;99.10
5027;DHT22;2532;52.480;13.354;2023-04-01T16:57:21;8.00;99.40
5027;DHT22;2532;52.480;13.354;2023-04-01T16:59:59;7.90;99.30
5027;DHT22;2532;52.480;13.354;2023-04-01T17:02:35;7.90;99.50
5027;DHT22;2532;52.480;13.354;2023-04-01T17:05:06;7.90;99.50
5027;DHT22;2532;52.480;13.354;2023-04-01T17:07:47;7.90;99.30
5027;DHT22;2532;52.480;13.354;2023-04-01T17:10:34;7.80;99.30
5027;DHT22;2532;52.480;13.354;2023-04-01T17:13:26;7.80;99.60
5027;DHT22;2532;52.480;13.354;2023-04-01T17:16:03;7.70;99.50
5027;DHT22;2532;52.480;13.354;2023-04-01T17:18:38;7.60;99.30
5027;DHT22;2532;52.480;13.354;2023-04-01T17:21:16;7.60;99.10
5027;DHT22;2532;52.480;13.354;2023-04-01T17:23:50;7.60;99.30
5027;DHT22;2532;52.480;13.354;2023-04-01T17:26:26;7.50;99.20
5027;DHT22;2532;52.480;13.354;2023-04-01T17:29:04;7.50;99.20
5027;DHT22;2532;52.480;13.354;2023-04-01T17:31:45;7.50;99.30
5027;DHT22;2532;52.480;13.354;2023-04-01T17:34:23;7.50;99.40
5027;DHT22;2532;52.480;13.354;2023-04-01T17:39:54;7.50;99.40
5027;DHT22;2532;52.480;13.354;2023-04-01T17:42:34;7.40;99.20
5027;DHT22;2532;52.480;13.354;2023-04-01T17:45:11;7.50;99.40
5027;DHT22;2532;52.480;13.354;2023-04-01T17:47:52;7.40;99.40
5027;DHT22;2532;52.480;13.354;2023-04-01T17:50:42;7.40;99.20
5027;DHT22;2532;52.480;13.354;2023-04-01T17:53:27;7.40;99.20
5027;DHT22;2532;52.480;13.354;2023-04-01T17:56:08;7.30;99.30
5027;DHT22;2532;52.480;13.354;2023-04-01T17:58:46;7.30;99.40
5027;DHT22;2532;52.480;13.354;2023-04-01T18:01:30;7.20;99.00
5027;DHT22;2532;52.480;13.354;2023-04-01T18:04:31;7.10;99.10
5027;DHT22;2532;52.480;13.354;2023-04-01T18:10:21;6.90;99.30
5027;DHT22;2532;52.480;13.354;2023-04-01T18:13:13;6.80;99.10
5027;DHT22;2532;52.480;13.354;2023-04-01T18:15:46;6.80;99.10
5027;DHT22;2532;52.480;13.354;2023-04-01T18:18:35;6.70;99.20
5027;DHT22;2532;52.480;13.354;2023-04-01T18:21:10;6.70;99.30
5027;DHT22;2532;52.480;13.354;2023-04-01T18:23:44;6.60;99.40
5027;DHT22;2532;52.480;13.354;2023-04-01T18:26:20;6.70;99.40
5027;DHT22;2532;52.480;13.354;2023-04-01T18:28:52;6.70;99.50
5027;DHT22;2532;52.480;13.354;2023-04-01T18:31:24;6.70;99.50
5027;DHT22;2532;52.480;13.354;2023-04-01T18:33:59;6.70;99.40
5027;DHT22;2532;52.480;13.354;2023-04-01T18:36:38;6.70;99.30
5027;DHT22;2532;52.480;13.354;2023-04-01T18:39:13;6.70;99.10
5027;DHT22;2532;52.480;13.354;2023-04-01T18:41:52;6.70;99.20
5027;DHT22;2532;52.480;13.354;2023-04-01T18:44:30;6.70;99.20
5027;DHT22;2532;52.480;13.354;2023-04-01T18:47:05;6.70;99.20
5027;DHT22;2532;52.480;13.354;2023-04-01T18:49:45;6.70;99.30
5027;DHT22;2532;52.480;13.354;2023-04-01T18:52:19;6.70;99.30
5027;DHT22;2532;52.480;13.354;2023-04-01T18:57:41;6.60;99.00
5027;DHT22;2532;52.480;13.354;2023-04-01T19:00:18;6.70;98.90
5027;DHT22;2532;52.480;13.354;2023-04-01T19:02:52;6.60;98.70
5027;DHT22;2532;52.480;13.354;2023-04-01T19:05:30;6.50;98.70
5027;DHT22;2532;52.480;13.354;2023-04-01T19:08:18;6.60;98.80
5027;DHT22;2532;52.480;13.354;2023-04-01T19:10:53;6.50;98.90
5027;DHT22;2532;52.480;13.354;2023-04-01T19:13:29;6.50;98.80
5027;DHT22;2532;52.480;13.354;2023-04-01T19:16:04;6.50;98.80
5027;DHT22;2532;52.480;13.354;2023-04-01T19:19:08;6.50;99.20
5027;DHT22;2532;52.480;13.354;2023-04-01T19:21:41;6.60;99.10
5027;DHT22;2532;52.480;13.354;2023-04-01T19:24:25;6.60;99.10
5027;DHT22;2532;52.480;13.354;2023-04-01T19:27:11;6.60;98.80
5027;DHT22;2532;52.480;13.354;2023-04-01T19:29:55;6.50;98.80
5027;DHT22;2532;52.480;13.354;2023-04-01T19:32:35;6.50;98.80
5027;DHT22;2532;52.480;13.354;2023-04-01T19:35:14;6.50;98.90
5027;DHT22;2532;52.480;13.354;2023-04-01T19:37:50;6.50;98.80
5027;DHT22;2532;52.480;13.354;2023-04-01T19:40:30;6.50;99.00
5027;DHT22;2532;52.480;13.354;2023-04-01T19:43:05;6.50;98.90
5027;DHT22;2532;52.480;13.354;2023-04-01T19:45:40;6.40;98.80
5027;DHT22;2532;52.480;13.354;2023-04-01T19:48:24;6.40;98.70
5027;DHT22;2532;52.480;13.354;2023-04-01T19:51:04;6.30;98.90
5027;DHT22;2532;52.480;13.354;2023-04-01T19:53:37;6.30;98.80
5027;DHT22;2532;52.480;13.354;2023-04-01T19:56:14;6.20;98.70
5027;DHT22;2532;52.480;13.354;2023-04-01T19:58:47;6.10;98.70
5027;DHT22;2532;52.480;13.354;2023-04-01T20:01:20;6.20;98.90
5027;DHT22;2532;52.480;13.354;2023-04-01T20:03:53;6.10;98.90
5027;DHT22;2532;52.480;13.354;2023-04-01T20:06:28;6.10;98.90
5027;DHT22;2532;52.480;13.354;2023-04-01T20:09:38;6.10;99.00
5027;DHT22;2532;52.480;13.354;2023-04-01T20:12:15;6.10;99.10
5027;DHT22;2532;52.480;13.354;2023-04-01T20:14:51;6.10;99.10
5027;DHT22;2532;52.480;13.354;2023-04-01T20:17:21;6.00;99.10
5027;DHT22;2532;52.480;13.354;2023-04-01T20:19:55;6.00;99.20
5027;DHT22;2532;52.480;13.354;2023-04-01T20:22:33;6.00;99.00
5027;DHT22;2532;52.480;13.354;2023-04-01T20:25:06;6.00;98.90
5027;DHT22;2532;52.480;13.354;2023-04-01T20:27:41;6.00;99.00
5027;DHT22;2532;52.480;13.354;2023-04-01T20:30:46;5.90;99.00
5027;DHT22;2532;52.480;13.354;2023-04-01T20:33:43;5.90;99.00
5027;DHT22;2532;52.480;13.354;2023-04-01T20:36:16;5.90;99.10
5027;DHT22;2532;52.480;13.354;2023-04-01T20:39:24;5.90;99.20
5027;DHT22;2532;52.480;13.354;2023-04-01T20:42:05;5.80;99.00
5027;DHT22;2532;52.480;13.354;2023-04-01T20:44:41;5.80;99.00
5027;DHT22;2532;52.480;13.354;2023-04-01T20:47:21;5.80;99.10
5027;DHT22;2532;52.480;13.354;2023-04-01T20:49:54;5.80;99.10
5027;DHT22;2532;52.480;13.354;2023-04-01T20:52:37;5.80;99.20
5027;DHT22;2532;52.480;13.354;2023-04-01T20:55:30;5.80;99.30
5027;DHT22;2532;52.480;13.354;2023-04-01T20:58:13;5.70;99.00
